Flight Track Log - Related Links

Times and Time Zones

All times are in EDT time to prevent confusion due to time zone crossing. See the UAL5908 flight status page for this flight to view local times or setup timezone preferences in your user account.

Time Position Orientation Groundspeed Altitude Reporting Facility
EDT Latitude Longitude Course Direction KTS MPH feet Rate Location/Type
Thu 05:12:34 PM 42.3667 -71.0167 228° Southwest 149 171 400  Level KA90
Thu 05:13:23 PM 42.4000 -71.0500 324° Northwest 174 200 2,100 2,037 Climbing KA90
Thu 05:14:23 PM 42.3833 -71.1167 251° West 232 267 4,100 2,566 Climbing KA90
Thu 05:15:00 PM 42.4170 -70.7507 118° Southeast  Level FlightAware Approximate
Thu 05:16:00 PM 42.3353 -70.7237 172° South  Level FlightAware Approximate
Thu 05:16:16 PM 42.3275 -71.2633 243° Southwest 265 305 9,500  Level Boston Center
Thu 05:17:00 PM 42.2659 -70.7678 228° Southwest  Level FlightAware Approximate
Thu 05:17:16 PM 42.3142 -71.3703 260° West 259 298 11,400  Level Boston Center
Thu 05:18:16 PM 42.3047 -71.4744 263° West 294 338 12,400 1,200 Climbing Boston Center
Thu 05:19:16 PM 42.2908 -71.5869 261° West 332 382 13,800 1,600 Climbing Boston Center
Thu 05:20:16 PM 42.2753 -71.7386 262° West 347 399 15,600 1,550 Climbing Boston Center
Thu 05:21:16 PM 42.2614 -71.8481 260° West 347 399 16,900 1,300 Climbing Boston Center
Thu 05:22:16 PM 42.2472 -71.9772 262° West 354 407 18,200 1,400 Climbing Boston Center
Thu 05:23:16 PM 42.2331 -72.1036 261° West 349 402 19,700 1,500 Climbing Boston Center
Thu 05:24:16 PM 42.2189 -72.2269 261° West 349 402 21,200 1,500 Climbing Boston Center
Thu 05:25:16 PM 42.2044 -72.3533 261° West 349 402 22,700 1,500 Climbing Boston Center
Thu 05:26:16 PM 42.1900 -72.4736 261° West 349 402 24,200 1,500 Climbing Boston Center
Thu 05:27:16 PM 42.1753 -72.5942 261° West 337 388 25,700 1,500 Climbing Boston Center
Thu 05:28:16 PM 42.1583 -72.7117 259° West 332 382 27,200 1,500 Climbing Boston Center
Thu 05:29:16 PM 42.1122 -72.8067 237° Southwest 309 356 28,700 1,500 Climbing Boston Center
Thu 05:30:16 PM 42.0578 -72.8958 231° Southwest 303 349 30,200 1,450 Climbing Boston Center
Thu 05:31:16 PM 41.9989 -72.9708 223° Southwest 291 335 31,600 900 Climbing Boston Center
Thu 05:32:16 PM 41.9444 -73.0431 225° Southwest 296 341 32,000 200 Climbing Boston Center
Thu 05:33:16 PM 41.8814 -73.1289 225° Southwest 308 354 32,000  Level Boston Center
Thu 05:34:16 PM 41.8164 -73.2144 224° Southwest 322 371 32,000  Level Boston Center
Thu 05:35:16 PM 41.7511 -73.3028 225° Southwest 329 379 32,000  Level Boston Center
Thu 05:36:16 PM 41.6817 -73.3936 224° Southwest 334 384 32,000  Level Boston Center
Thu 05:37:16 PM 41.6161 -73.4842 226° Southwest 339 390 32,000  Level Boston Center
Thu 05:39:03 PM 41.4867 -73.6514 224° Southwest 329 379 32,000  Level New York Center
Thu 05:40:03 PM 41.4200 -73.7397 225° Southwest 352 405 32,000  Level New York Center
Thu 05:41:04 PM 41.3553 -73.8253 225° Southwest 359 413 32,000  Level New York Center
Thu 05:42:05 PM 41.2778 -73.9239 224° Southwest 359 413 32,000  Level New York Center
Thu 05:43:03 PM 41.2131 -74.0092 225° Southwest 354 407 32,000 -504 Level New York Center
Thu 05:44:04 PM 41.1436 -74.1050 226° Southwest 354 407 31,000 -992 Descending New York Center
Thu 05:45:04 PM 41.0867 -74.2094 234° Southwest 359 413 30,000 -992 Descending New York Center
Thu 05:46:05 PM 41.0308 -74.3303 239° Southwest 372 428 29,000 -1,008 Descending New York Center
Thu 05:47:03 PM 40.9753 -74.4483 238° Southwest 379 436 28,000 -508 Descending New York Center
Thu 05:48:03 PM 40.9175 -74.5633 236° Southwest 384 442 28,000  Level New York Center
Thu 05:49:04 PM 40.8761 -74.6789 245° Southwest 370 426 28,000  Level New York Center
Thu 05:50:04 PM 40.8431 -74.7950 249° West 354 407 28,000  Level New York Center
Thu 05:51:05 PM 40.8081 -74.9028 247° West 347 399 28,000 -446 Level New York Center
Thu 05:52:05 PM 40.7747 -75.0183 249° West 342 394 27,100 -1,271 Descending New York Center
Thu 05:53:03 PM 40.7394 -75.1286 247° West 342 394 25,500 -1,563 Descending New York Center
Thu 05:54:04 PM 40.7061 -75.2414 249° West 337 388 24,000 -1,488 Descending New York Center
Thu 05:55:04 PM 40.6708 -75.3486 247° West 332 382 22,500 -1,488 Descending New York Center
Thu 05:56:05 PM 40.6275 -75.4442 239° Southwest 325 374 21,000 -1,261 Descending New York Center
Thu 05:57:03 PM 40.5739 -75.5333 232° Southwest 319 367 20,000 -504 Descending New York Center
Thu 05:58:04 PM 40.5225 -75.6200 232° Southwest 314 361 20,000  Level New York Center
Thu 05:59:05 PM 40.4686 -75.7089 231° Southwest 314 361 20,000  Level New York Center
Thu 06:00:03 PM 40.4169 -75.7978 233° Southwest 308 354 20,000  Level New York Center
Thu 06:01:03 PM 40.3631 -75.8892 232° Southwest 313 360 20,000  Level New York Center
Thu 06:02:03 PM 40.3047 -75.9831 231° Southwest 318 366 20,000 -347 Level New York Center
Thu 06:03:04 PM 40.2528 -76.0717 232° Southwest 318 366 19,300 -893 Descending New York Center
Thu 06:04:04 PM 40.1964 -76.1678 232° Southwest 309 356 18,200 -744 Descending New York Center
Thu 06:05:05 PM 40.1472 -76.2428 229° Southwest 309 356 17,800 -605 Descending New York Center
Thu 06:06:03 PM 40.0989 -76.3367 236° Southwest 315 362 17,000 -966 Descending New York Center
Thu 06:07:03 PM 40.0500 -76.4439 239° Southwest 315 362 15,900 -646 Descending New York Center
Thu 06:09:18 PM 39.9500 -76.6500 238° Southwest 309 356 14,900 -308 Descending Potomac TRACON
Thu 06:10:18 PM 39.9000 -76.7500 237° Southwest 313 360 14,900 48 Level Potomac TRACON
Thu 06:11:24 PM 39.8667 -76.8500 247° West 309 356 15,000 -95 Climbing Potomac TRACON
Thu 06:12:24 PM 39.8167 -76.9333 232° Southwest 303 349 14,700 -650 Descending Potomac TRACON
Thu 06:13:24 PM 39.7667 -77.0333 237° Southwest 300 345 13,700 -992 Descending Potomac TRACON
Thu 06:14:25 PM 39.7333 -77.1167 243° Southwest 297 342 12,700 -1,041 Descending Potomac TRACON
Thu 06:15:25 PM 39.6833 -77.2167 237° Southwest 286 329 11,600 -1,250 Descending Potomac TRACON
Thu 06:16:25 PM 39.6333 -77.2667 218° Southwest 269 310 10,200 -1,388 Descending Potomac TRACON
Thu 06:17:26 PM 39.5667 -77.3000 201° Southwest 258 297 8,800 -1,409 Descending Potomac TRACON
Thu 06:18:20 PM 39.5000 -77.3333 201° Southwest 265 305 7,500 -900 Descending Potomac TRACON
Thu 06:19:26 PM 39.4333 -77.3500 191° South 258 297 7,000 -774 Descending Potomac TRACON
Thu 06:21:26 PM 39.2833 -77.3667 185° South 271 312 5,100 -867 Descending Potomac TRACON
Thu 06:22:26 PM 39.2167 -77.3667 180° South 256 295 4,400 -550 Descending Potomac TRACON
Thu 06:23:26 PM 39.1333 -77.3667 180° South 254 292 4,000 -232 Descending Potomac TRACON
Thu 06:25:00 PM 38.9721 -77.3500 180° South  Level FlightAware Approximate
Thu 06:25:27 PM 38.9833 -77.3500 180° South 247 284 3,700  Level Potomac TRACON
Thu 06:26:21 PM 38.9333 -77.3500 180° South 225 259 3,100 -350 Descending Potomac TRACON
Thu 06:27:27 PM 38.8667 -77.3667 191° South 189 217 3,000 -190 Descending Potomac TRACON
Thu 06:28:27 PM 38.8333 -77.3833 201° Southwest 199 229 2,700 -300 Descending Potomac TRACON

Login

Don't have an account? Register now (free) for customized features, flight alerts, and more!